Time;durP1;ratioP1;P1;durP2;ratioP2;P2;SDS_P1;SDS_P2;PMS_P1;PMS_P2;Temp;Humidity;BMP_temperature;BMP_pressure;BME280_temperature;BME280_humidity;BME280_pressure;Samples;Min_cycle;Max_cycle;Signal;HPM_P1;HPM_P2
2022/03/20 00:01:43;;;;;;;22.67;12.70;;;;;;;;;;5009760;28;20033;-72
2022/03/20 00:04:09;;;;;;;22.90;11.05;;;;;;;;;;5007912;28;20247;-73
2022/03/20 00:06:35;;;;;;;20.98;9.43;;;;;;;;;;5009009;28;20555;-73
2022/03/20 00:09:02;;;;;;;17.80;9.35;;;;;;;;;;5008259;28;20034;-73
2022/03/20 00:11:28;;;;;;;19.15;7.93;;;;;;;;;;5005801;28;20060;-73
2022/03/20 00:13:54;;;;;;;12.30;7.75;;;;;;;;;;5002395;28;20113;-73
2022/03/20 00:16:23;;;;;;;13.23;7.60;;;;;;;;;;5007501;28;20033;-73
2022/03/20 00:18:49;;;;;;;14.18;7.05;;;;;;;;;;5003844;28;20022;-74
2022/03/20 00:21:15;;;;;;;11.60;5.70;;;;;;;;;;5004610;28;20421;-73
2022/03/20 00:23:44;;;;;;;10.07;5.15;;;;;;;;;;5005628;28;20025;-73
2022/03/20 00:26:10;;;;;;;12.15;5.53;;;;;;;;;;5003829;28;20760;-73
2022/03/20 00:28:36;;;;;;;11.68;4.85;;;;;;;;;;5005533;28;20030;-72
2022/03/20 00:31:03;;;;;;;10.40;4.78;;;;;;;;;;5005285;28;20045;-73
2022/03/20 00:33:29;;;;;;;8.90;4.85;;;;;;;;;;5005678;28;20115;-73
2022/03/20 00:35:55;;;;;;;8.27;5.22;;;;;;;;;;5006895;28;20110;-72
2022/03/20 00:38:21;;;;;;;6.88;4.65;;;;;;;;;;5002910;28;20084;-73
2022/03/20 00:40:48;;;;;;;6.00;4.07;;;;;;;;;;5006967;28;20050;-73
2022/03/20 00:43:14;;;;;;;10.75;7.50;;;;;;;;;;5005731;28;20030;-74
2022/03/20 00:45:40;;;;;;;7.85;4.30;;;;;;;;;;5006210;28;20030;-72
2022/03/20 00:48:10;;;;;;;7.70;4.25;;;;;;;;;;4984980;28;20030;-73
2022/03/20 00:50:36;;;;;;;10.00;5.55;;;;;;;;;;5004240;28;20399;-72
2022/03/20 00:53:02;;;;;;;7.18;3.97;;;;;;;;;;5004937;28;20033;-73
2022/03/20 00:55:29;;;;;;;12.15;5.28;;;;;;;;;;5003503;28;20034;-73
2022/03/20 00:57:55;;;;;;;6.95;4.25;;;;;;;;;;5006914;28;20018;-73
2022/03/20 01:00:21;;;;;;;5.35;4.03;;;;;;;;;;5005696;28;20018;-72
2022/03/20 01:02:47;;;;;;;7.60;3.80;;;;;;;;;;5010934;28;20089;-73
2022/03/20 01:05:14;;;;;;;9.93;3.97;;;;;;;;;;5005545;28;20027;-73
2022/03/20 01:07:41;;;;;;;6.53;3.58;;;;;;;;;;5006052;28;20431;-73
2022/03/20 01:10:08;;;;;;;9.18;3.97;;;;;;;;;;4989249;28;20088;-73
2022/03/20 01:12:34;;;;;;;9.63;3.85;;;;;;;;;;5004537;28;20399;-72
2022/03/20 01:15:01;;;;;;;8.30;4.70;;;;;;;;;;5004773;28;20113;-72
2022/03/20 01:17:27;;;;;;;13.35;4.85;;;;;;;;;;5009399;28;20030;-72
2022/03/20 01:19:53;;;;;;;9.55;4.55;;;;;;;;;;5006398;28;20508;-73
2022/03/20 01:22:19;;;;;;;9.32;4.75;;;;;;;;;;5009975;28;20029;-73
2022/03/20 01:24:46;;;;;;;10.13;4.60;;;;;;;;;;5011153;28;20129;-73
2022/03/20 01:27:13;;;;;;;12.90;4.53;;;;;;;;;;5010010;28;20376;-73
2022/03/20 01:29:39;;;;;;;6.90;4.22;;;;;;;;;;5009271;28;20121;-72
2022/03/20 01:32:05;;;;;;;7.70;3.85;;;;;;;;;;4992440;28;20471;-73
2022/03/20 01:34:31;;;;;;;11.15;4.70;;;;;;;;;;5011134;28;20101;-72
2022/03/20 01:36:58;;;;;;;6.22;3.65;;;;;;;;;;5007574;28;20488;-73
2022/03/20 01:39:24;;;;;;;7.07;3.70;;;;;;;;;;5010456;28;20033;-72
2022/03/20 01:41:51;;;;;;;7.70;4.57;;;;;;;;;;5008087;28;20036;-73
2022/03/20 01:44:17;;;;;;;10.00;4.28;;;;;;;;;;5004930;28;20108;-73
2022/03/20 01:46:43;;;;;;;12.95;4.50;;;;;;;;;;5009155;28;20061;-73
2022/03/20 01:49:10;;;;;;;9.63;4.40;;;;;;;;;;4992318;28;20109;-73
2022/03/20 01:54:21;;;;;;;11.90;5.07;;;;;;;;;;5006063;28;20111;-73
2022/03/20 01:56:49;;;;;;;11.15;4.50;;;;;;;;;;5000952;28;20026;-73
2022/03/20 01:59:16;;;;;;;8.05;4.15;;;;;;;;;;5008065;28;20089;-72
2022/03/20 02:01:42;;;;;;;9.65;4.75;;;;;;;;;;5008356;28;20030;-73
2022/03/20 02:04:08;;;;;;;9.70;4.25;;;;;;;;;;4996481;28;20030;-74
2022/03/20 02:06:35;;;;;;;12.20;4.78;;;;;;;;;;5009922;28;20025;-71
2022/03/20 02:09:01;;;;;;;8.70;5.78;;;;;;;;;;5009076;28;20112;-72
2022/03/20 02:11:27;;;;;;;10.10;5.25;;;;;;;;;;5008792;28;20821;-73
2022/03/20 02:13:53;;;;;;;8.30;4.55;;;;;;;;;;5009013;28;20029;-73
2022/03/20 02:16:20;;;;;;;7.32;4.72;;;;;;;;;;5007182;28;20032;-74
2022/03/20 02:18:47;;;;;;;10.32;4.85;;;;;;;;;;5009673;28;20076;-73
2022/03/20 02:21:16;;;;;;;9.93;4.57;;;;;;;;;;5008626;28;20076;-72
2022/03/20 02:23:45;;;;;;;12.73;6.43;;;;;;;;;;5009266;28;20060;-72
2022/03/20 02:26:11;;;;;;;11.27;6.05;;;;;;;;;;5008690;28;20034;-72
2022/03/20 02:28:37;;;;;;;12.57;5.28;;;;;;;;;;5004913;28;20030;-73
2022/03/20 02:31:03;;;;;;;7.47;4.85;;;;;;;;;;5006128;28;20148;-73
2022/03/20 02:33:29;;;;;;;9.30;4.75;;;;;;;;;;4990118;28;20661;-73
2022/03/20 02:35:55;;;;;;;9.63;4.40;;;;;;;;;;5007467;28;20022;-72
2022/03/20 02:38:21;;;;;;;10.55;4.72;;;;;;;;;;5004065;28;20117;-72
2022/03/20 02:40:51;;;;;;;12.40;4.38;;;;;;;;;;5009283;28;20096;-73
2022/03/20 02:43:17;;;;;;;18.00;4.55;;;;;;;;;;5007086;28;20033;-74
2022/03/20 02:45:43;;;;;;;8.85;4.47;;;;;;;;;;5004366;28;20037;-74
2022/03/20 02:48:10;;;;;;;8.25;3.85;;;;;;;;;;5007956;28;20022;-73
2022/03/20 02:50:37;;;;;;;7.68;4.10;;;;;;;;;;5007774;28;20029;-71
2022/03/20 02:53:04;;;;;;;6.88;4.10;;;;;;;;;;5007870;28;20038;-72
2022/03/20 02:55:32;;;;;;;9.35;4.38;;;;;;;;;;5008378;28;20037;-73
2022/03/20 02:57:59;;;;;;;11.13;4.47;;;;;;;;;;5006745;28;20049;-73
2022/03/20 03:00:28;;;;;;;8.43;3.95;;;;;;;;;;5005894;28;20054;-74
2022/03/20 03:02:55;;;;;;;11.13;3.92;;;;;;;;;;5006213;28;20033;-73
2022/03/20 03:05:22;;;;;;;7.45;4.03;;;;;;;;;;5006605;28;20040;-72
2022/03/20 03:13:20;;;;;;;9.40;3.90;;;;;;;;;;5002583;28;20068;-74
2022/03/20 03:15:46;;;;;;;10.82;4.72;;;;;;;;;;5007037;28;20483;-73
2022/03/20 03:18:12;;;;;;;8.23;4.18;;;;;;;;;;5002984;28;20041;-73
2022/03/20 03:20:38;;;;;;;9.05;4.10;;;;;;;;;;5007219;28;20104;-73
2022/03/20 03:23:05;;;;;;;10.25;4.45;;;;;;;;;;5008601;28;20527;-73
2022/03/20 03:25:40;;;;;;;6.40;4.50;;;;;;;;;;5003273;28;20589;-72
2022/03/20 03:28:07;;;;;;;7.43;4.50;;;;;;;;;;5004582;28;21667;-72
2022/03/20 03:30:33;;;;;;;6.97;4.10;;;;;;;;;;5002997;28;20095;-72
2022/03/20 03:32:59;;;;;;;8.18;3.67;;;;;;;;;;4988678;28;20037;-74
2022/03/20 03:35:47;;;;;;;7.80;3.72;;;;;;;;;;5005765;28;20117;-73
2022/03/20 03:38:13;;;;;;;9.35;3.75;;;;;;;;;;4989562;28;20497;-72
2022/03/20 03:40:40;;;;;;;8.20;3.53;;;;;;;;;;5008598;28;20500;-73
2022/03/20 03:43:06;;;;;;;6.93;3.65;;;;;;;;;;4987523;28;20033;-73
2022/03/20 03:45:33;;;;;;;10.80;4.18;;;;;;;;;;5003261;28;20029;-73
2022/03/20 03:47:59;;;;;;;8.63;3.92;;;;;;;;;;5004975;28;20564;-73
2022/03/20 03:50:25;;;;;;;7.22;3.80;;;;;;;;;;5007349;28;20038;-73
2022/03/20 03:52:51;;;;;;;10.32;4.07;;;;;;;;;;5005598;28;20503;-73
2022/03/20 03:55:18;;;;;;;8.73;3.90;;;;;;;;;;5006647;28;20076;-73
2022/03/20 03:57:48;;;;;;;14.32;4.45;;;;;;;;;;5005615;28;20053;-73
2022/03/20 04:00:15;;;;;;;9.73;3.80;;;;;;;;;;5006128;28;20036;-73
2022/03/20 04:02:41;;;;;;;10.27;4.93;;;;;;;;;;5006776;28;20049;-73
2022/03/20 04:05:07;;;;;;;13.38;4.00;;;;;;;;;;4991057;28;20716;-74
2022/03/20 04:07:35;;;;;;;12.93;4.13;;;;;;;;;;4989422;28;20589;-73
2022/03/20 04:10:01;;;;;;;7.43;3.50;;;;;;;;;;5008360;28;20022;-72
2022/03/20 04:12:28;;;;;;;10.00;4.40;;;;;;;;;;5004324;28;20052;-73
2022/03/20 04:14:57;;;;;;;9.80;4.18;;;;;;;;;;5006225;28;20712;-72
2022/03/20 04:17:23;;;;;;;16.17;5.35;;;;;;;;;;5003669;28;20164;-72
2022/03/20 04:19:49;;;;;;;6.85;4.50;;;;;;;;;;5006456;28;20520;-73
2022/03/20 04:22:15;;;;;;;9.35;4.10;;;;;;;;;;5007359;28;20029;-72
2022/03/20 04:24:41;;;;;;;7.47;4.22;;;;;;;;;;5006642;28;20057;-73
2022/03/20 04:27:08;;;;;;;11.77;4.32;;;;;;;;;;5006975;28;20033;-73
2022/03/20 04:29:34;;;;;;;8.63;4.18;;;;;;;;;;5006052;28;20041;-73
2022/03/20 04:32:00;;;;;;;9.68;4.05;;;;;;;;;;5003981;28;20065;-73
2022/03/20 04:34:27;;;;;;;10.15;3.60;;;;;;;;;;5004184;28;20391;-74
2022/03/20 04:36:56;;;;;;;9.30;4.05;;;;;;;;;;5006796;28;20025;-73
2022/03/20 04:39:23;;;;;;;7.45;3.75;;;;;;;;;;5007904;28;20037;-73
2022/03/20 04:41:49;;;;;;;8.98;3.80;;;;;;;;;;5004394;28;20029;-73
2022/03/20 04:44:15;;;;;;;9.35;3.97;;;;;;;;;;5006731;28;20034;-73
2022/03/20 04:46:41;;;;;;;7.35;3.90;;;;;;;;;;5005439;28;20507;-72
2022/03/20 05:00:05;;;;;;;11.02;3.90;;;;;;;;;;5005157;28;20045;-73
2022/03/20 05:02:31;;;;;;;6.85;4.18;;;;;;;;;;5006757;28;20380;-72
2022/03/20 05:04:57;;;;;;;8.80;4.13;;;;;;;;;;5007331;28;20041;-72
2022/03/20 05:07:23;;;;;;;8.75;3.72;;;;;;;;;;5006131;28;20034;-73
2022/03/20 05:15:18;;;;;;;12.68;4.70;;;;;;;;;;5001604;28;20335;-72
2022/03/20 05:17:44;;;;;;;12.90;4.25;;;;;;;;;;5007469;28;20025;-72
2022/03/20 05:20:11;;;;;;;6.93;3.30;;;;;;;;;;5004755;28;20030;-73
2022/03/20 05:22:40;;;;;;;11.10;4.00;;;;;;;;;;5005773;28;20109;-73
2022/03/20 05:25:10;;;;;;;8.63;4.20;;;;;;;;;;4990584;28;20029;-72
2022/03/20 05:27:37;;;;;;;9.50;3.97;;;;;;;;;;5006391;28;20084;-72
2022/03/20 05:30:09;;;;;;;13.95;4.30;;;;;;;;;;5005268;28;20038;-73
2022/03/20 05:32:35;;;;;;;11.27;4.45;;;;;;;;;;5005900;28;20036;-73
2022/03/20 05:35:05;;;;;;;7.57;4.00;;;;;;;;;;5008140;28;20136;-73
2022/03/20 05:37:32;;;;;;;8.43;4.80;;;;;;;;;;5004877;28;20025;-73
2022/03/20 05:39:58;;;;;;;9.10;3.95;;;;;;;;;;5002366;28;20042;-74
2022/03/20 05:42:24;;;;;;;10.68;3.70;;;;;;;;;;5005767;28;20037;-73
2022/03/20 05:44:51;;;;;;;9.88;4.32;;;;;;;;;;4987426;28;20037;-73
2022/03/20 05:47:17;;;;;;;8.27;3.45;;;;;;;;;;5004128;28;20034;-73
2022/03/20 05:49:43;;;;;;;10.10;4.43;;;;;;;;;;5003611;28;20116;-74
2022/03/20 05:52:11;;;;;;;7.20;3.47;;;;;;;;;;5004969;28;20033;-73
2022/03/20 05:54:37;;;;;;;9.18;4.60;;;;;;;;;;5000697;28;20068;-73
2022/03/20 05:59:49;;;;;;;8.70;3.70;;;;;;;;;;5004804;28;20514;-73
2022/03/20 06:02:16;;;;;;;8.40;4.18;;;;;;;;;;5007802;28;20026;-72
2022/03/20 06:04:42;;;;;;;9.90;4.30;;;;;;;;;;5007118;28;20030;-73
2022/03/20 06:07:08;;;;;;;7.50;4.25;;;;;;;;;;5007270;28;20056;-74
2022/03/20 06:09:36;;;;;;;15.25;4.35;;;;;;;;;;5009502;28;20029;-73
2022/03/20 06:12:02;;;;;;;7.93;4.78;;;;;;;;;;4992285;28;20589;-72
2022/03/20 06:14:28;;;;;;;13.98;4.10;;;;;;;;;;5006630;28;20030;-73
2022/03/20 06:16:54;;;;;;;9.88;3.65;;;;;;;;;;5006064;28;20037;-73
2022/03/20 06:19:21;;;;;;;18.98;4.55;;;;;;;;;;5007719;28;20022;-72
2022/03/20 06:21:47;;;;;;;11.57;6.32;;;;;;;;;;5010341;28;20026;-73
2022/03/20 06:24:13;;;;;;;8.82;4.28;;;;;;;;;;5007741;28;20033;-73
2022/03/20 06:26:39;;;;;;;11.90;3.90;;;;;;;;;;4990176;28;20557;-73
2022/03/20 06:29:06;;;;;;;6.55;3.35;;;;;;;;;;5009583;28;20076;-73
2022/03/20 06:31:32;;;;;;;15.63;5.25;;;;;;;;;;5008191;28;20076;-73
2022/03/20 06:33:59;;;;;;;8.70;4.35;;;;;;;;;;5009533;28;20053;-73
2022/03/20 06:36:25;;;;;;;11.25;4.20;;;;;;;;;;5013372;28;20026;-73
2022/03/20 06:38:51;;;;;;;13.27;3.97;;;;;;;;;;5007637;28;20101;-75
2022/03/20 06:41:20;;;;;;;8.10;4.15;;;;;;;;;;5011955;28;20038;-74
2022/03/20 06:43:46;;;;;;;9.90;3.97;;;;;;;;;;5006435;28;20113;-74
2022/03/20 06:46:12;;;;;;;8.02;4.40;;;;;;;;;;5007216;28;20447;-75
2022/03/20 06:48:38;;;;;;;6.68;3.47;;;;;;;;;;5004648;28;20026;-73
2022/03/20 06:51:04;;;;;;;8.02;3.55;;;;;;;;;;5009388;28;20034;-74
2022/03/20 06:53:32;;;;;;;9.18;3.88;;;;;;;;;;5006270;28;20030;-75
2022/03/20 06:55:58;;;;;;;12.98;3.78;;;;;;;;;;5008695;28;20041;-74
2022/03/20 06:58:25;;;;;;;8.45;4.63;;;;;;;;;;4990554;28;20022;-73
2022/03/20 07:00:51;;;;;;;9.02;4.20;;;;;;;;;;5005754;28;20037;-73
2022/03/20 07:03:17;;;;;;;12.75;3.85;;;;;;;;;;5009139;28;20447;-73
2022/03/20 07:05:43;;;;;;;5.97;3.65;;;;;;;;;;5010312;28;20061;-72
2022/03/20 07:08:10;;;;;;;9.75;3.85;;;;;;;;;;5007651;28;20104;-74
2022/03/20 07:10:36;;;;;;;7.10;4.10;;;;;;;;;;5007845;28;20053;-73
2022/03/20 07:15:49;;;;;;;12.15;3.97;;;;;;;;;;5005609;28;20040;-73
2022/03/20 07:18:18;;;;;;;8.18;4.43;;;;;;;;;;5006224;28;20053;-74
2022/03/20 07:20:45;;;;;;;5.70;3.55;;;;;;;;;;4986158;28;20033;-72
2022/03/20 07:23:11;;;;;;;6.72;3.42;;;;;;;;;;5007573;28;20100;-73
2022/03/20 07:31:09;;;;;;;11.40;3.70;;;;;;;;;;5006030;28;19955;-74
2022/03/20 07:33:35;;;;;;;11.43;3.65;;;;;;;;;;5006126;28;20484;-74
2022/03/20 07:36:01;;;;;;;8.90;3.90;;;;;;;;;;5004969;28;20120;-73
2022/03/20 07:38:28;;;;;;;9.38;3.63;;;;;;;;;;5009015;28;20117;-73
2022/03/20 07:40:54;;;;;;;12.05;4.65;;;;;;;;;;5006046;28;20046;-74
2022/03/20 07:43:20;;;;;;;7.38;4.03;;;;;;;;;;5009205;28;20030;-73
2022/03/20 07:45:46;;;;;;;8.52;4.13;;;;;;;;;;5005980;28;20108;-73
2022/03/20 07:48:13;;;;;;;8.80;4.10;;;;;;;;;;5008871;28;20022;-73
2022/03/20 07:50:40;;;;;;;6.32;4.97;;;;;;;;;;5006292;28;20040;-74
2022/03/20 07:53:06;;;;;;;15.43;4.57;;;;;;;;;;5008042;28;20484;-74
2022/03/20 07:55:34;;;;;;;9.43;3.75;;;;;;;;;;4993323;28;20049;-74
2022/03/20 07:58:00;;;;;;;9.48;4.07;;;;;;;;;;5006112;28;20057;-73
2022/03/20 08:00:27;;;;;;;8.73;3.45;;;;;;;;;;5006895;28;20052;-74
2022/03/20 08:02:53;;;;;;;9.57;4.13;;;;;;;;;;4994903;28;20045;-73
2022/03/20 08:05:20;;;;;;;10.27;4.13;;;;;;;;;;5008918;28;20037;-72
2022/03/20 08:07:46;;;;;;;11.70;4.55;;;;;;;;;;4987923;28;20389;-74
2022/03/20 08:10:13;;;;;;;11.70;4.78;;;;;;;;;;5008414;28;20034;-73
2022/03/20 08:12:39;;;;;;;8.27;3.50;;;;;;;;;;5006258;28;20219;-72
2022/03/20 08:15:06;;;;;;;7.97;3.83;;;;;;;;;;5004036;28;20033;-73
2022/03/20 08:17:41;;;;;;;8.88;3.60;;;;;;;;;;4986048;28;20025;-72
2022/03/20 08:20:08;;;;;;;10.85;4.60;;;;;;;;;;5005676;28;20022;-74
2022/03/20 08:22:34;;;;;;;7.93;3.85;;;;;;;;;;5005110;28;20040;-74
2022/03/20 08:25:00;;;;;;;9.93;4.10;;;;;;;;;;4992794;28;20026;-73
2022/03/20 08:27:27;;;;;;;7.85;3.78;;;;;;;;;;5004809;28;20030;-74
2022/03/20 08:29:53;;;;;;;8.18;3.40;;;;;;;;;;5006350;28;20030;-73
2022/03/20 08:32:21;;;;;;;10.43;4.63;;;;;;;;;;5005628;28;20603;-73
2022/03/20 08:34:47;;;;;;;12.15;3.67;;;;;;;;;;5007028;28;20052;-74
2022/03/20 08:37:14;;;;;;;9.35;4.00;;;;;;;;;;5007630;28;20026;-72
2022/03/20 08:39:40;;;;;;;10.95;4.43;;;;;;;;;;5003757;28;20061;-73
2022/03/20 08:42:07;;;;;;;7.30;3.40;;;;;;;;;;5007026;28;20096;-73
2022/03/20 08:44:33;;;;;;;13.73;4.75;;;;;;;;;;5005953;28;20026;-72
2022/03/20 08:47:00;;;;;;;10.13;5.13;;;;;;;;;;5003980;28;20033;-72
2022/03/20 08:49:26;;;;;;;10.20;3.88;;;;;;;;;;4989003;28;20492;-73
2022/03/20 08:51:52;;;;;;;5.55;3.40;;;;;;;;;;5000198;28;20117;-74
2022/03/20 08:54:18;;;;;;;8.98;3.63;;;;;;;;;;5007188;28;20061;-74
2022/03/20 08:56:44;;;;;;;7.28;4.03;;;;;;;;;;5009388;28;20396;-73
2022/03/20 08:59:10;;;;;;;6.25;3.28;;;;;;;;;;4998000;28;20464;-74
2022/03/20 09:01:36;;;;;;;8.85;3.65;;;;;;;;;;5007646;28;20026;-73
2022/03/20 09:04:03;;;;;;;11.52;4.10;;;;;;;;;;5005884;28;20096;-73
2022/03/20 09:06:29;;;;;;;9.32;3.92;;;;;;;;;;5007928;28;20566;-74
2022/03/20 09:08:55;;;;;;;11.85;3.95;;;;;;;;;;5007039;28;20488;-73
2022/03/20 09:11:21;;;;;;;10.95;4.32;;;;;;;;;;5002904;28;20026;-71
2022/03/20 09:13:47;;;;;;;7.32;3.90;;;;;;;;;;5007482;28;20125;-73
2022/03/20 09:18:59;;;;;;;10.60;3.72;;;;;;;;;;5005120;28;20543;-74
2022/03/20 09:21:25;;;;;;;9.90;4.43;;;;;;;;;;5007182;28;20029;-74
2022/03/20 09:23:52;;;;;;;6.15;3.80;;;;;;;;;;5001723;28;20026;-74
2022/03/20 09:26:18;;;;;;;9.48;4.35;;;;;;;;;;5004055;28;20054;-73
2022/03/20 09:28:45;;;;;;;10.05;4.28;;;;;;;;;;5006577;28;20038;-73
2022/03/20 09:31:11;;;;;;;12.13;4.20;;;;;;;;;;5005131;28;20029;-73
2022/03/20 09:33:38;;;;;;;17.60;5.07;;;;;;;;;;5008776;28;20029;-74
2022/03/20 09:36:04;;;;;;;8.48;4.50;;;;;;;;;;5007849;28;20053;-73
2022/03/20 09:38:31;;;;;;;11.82;4.85;;;;;;;;;;5012419;28;20037;-74
2022/03/20 09:40:59;;;;;;;9.13;4.95;;;;;;;;;;5009876;28;20038;-74
2022/03/20 09:43:26;;;;;;;9.13;4.40;;;;;;;;;;5011216;28;20049;-73
2022/03/20 09:45:55;;;;;;;7.00;4.57;;;;;;;;;;5009691;28;20029;-74
2022/03/20 09:48:21;;;;;;;15.13;4.32;;;;;;;;;;5011538;28;20109;-73
2022/03/20 09:50:48;;;;;;;8.65;4.03;;;;;;;;;;5008713;28;20168;-73
2022/03/20 09:53:14;;;;;;;12.10;4.15;;;;;;;;;;5010297;28;20040;-73
2022/03/20 09:55:40;;;;;;;12.45;3.95;;;;;;;;;;5005845;28;20030;-75
2022/03/20 09:58:06;;;;;;;10.13;4.22;;;;;;;;;;4994128;28;20146;-75
2022/03/20 10:00:32;;;;;;;8.00;4.25;;;;;;;;;;5007689;28;20029;-74
2022/03/20 10:02:59;;;;;;;8.07;4.88;;;;;;;;;;5010299;28;20148;-75
2022/03/20 10:05:28;;;;;;;14.35;4.28;;;;;;;;;;4995122;28;20393;-74
2022/03/20 10:08:09;;;;;;;11.07;4.40;;;;;;;;;;4993511;28;20034;-75
2022/03/20 10:10:36;;;;;;;8.93;3.85;;;;;;;;;;5007221;28;20389;-75
2022/03/20 10:13:04;;;;;;;11.20;4.72;;;;;;;;;;5006620;28;20045;-74
2022/03/20 10:15:31;;;;;;;11.23;4.40;;;;;;;;;;5010120;28;20030;-74
2022/03/20 10:18:06;;;;;;;12.98;3.88;;;;;;;;;;5006253;28;20026;-75
2022/03/20 10:20:44;;;;;;;7.85;4.30;;;;;;;;;;5012233;28;20093;-76
2022/03/20 10:23:29;;;;;;;8.63;4.32;;;;;;;;;;5013739;28;20037;-74
2022/03/20 10:25:55;;;;;;;6.38;4.25;;;;;;;;;;5014053;28;20029;-74
2022/03/20 10:28:22;;;;;;;11.15;4.38;;;;;;;;;;4993755;28;20391;-75
2022/03/20 10:30:57;;;;;;;9.52;4.10;;;;;;;;;;5012673;28;20030;-71
2022/03/20 10:33:24;;;;;;;8.73;4.88;;;;;;;;;;5013787;28;20667;-73
2022/03/20 10:36:09;;;;;;;9.98;4.55;;;;;;;;;;5009154;28;21139;-73
2022/03/20 10:38:38;;;;;;;10.25;4.32;;;;;;;;;;5014932;28;20032;-72
2022/03/20 10:41:26;;;;;;;14.85;6.80;;;;;;;;;;5010565;28;20050;-74
2022/03/20 10:43:53;;;;;;;10.48;4.90;;;;;;;;;;5011969;28;20793;-73
2022/03/20 10:46:27;;;;;;;12.05;4.80;;;;;;;;;;5014704;28;20037;-73
2022/03/20 10:49:01;;;;;;;9.07;4.35;;;;;;;;;;5013307;28;20065;-74
2022/03/20 10:51:37;;;;;;;9.32;4.82;;;;;;;;;;5011124;28;20026;-74
2022/03/20 10:54:08;;;;;;;11.25;5.40;;;;;;;;;;5008832;28;20153;-74
2022/03/20 10:56:34;;;;;;;8.52;4.40;;;;;;;;;;5008716;28;20049;-74
2022/03/20 10:59:03;;;;;;;9.95;4.72;;;;;;;;;;5012840;28;20034;-74
2022/03/20 11:01:36;;;;;;;12.32;4.43;;;;;;;;;;5011715;28;20057;-73
2022/03/20 11:04:04;;;;;;;9.45;4.35;;;;;;;;;;5006519;28;20032;-74
2022/03/20 11:06:30;;;;;;;9.80;4.57;;;;;;;;;;5011657;28;20018;-75
2022/03/20 11:08:56;;;;;;;9.48;4.97;;;;;;;;;;5010821;28;20029;-73
2022/03/20 11:11:23;;;;;;;11.55;4.97;;;;;;;;;;4992697;28;20045;-75
2022/03/20 11:13:51;;;;;;;14.25;5.75;;;;;;;;;;5009403;28;20041;-75
2022/03/20 11:16:20;;;;;;;9.15;4.57;;;;;;;;;;5013233;28;20040;-72
2022/03/20 11:18:51;;;;;;;16.58;5.78;;;;;;;;;;5010755;28;20045;-73
2022/03/20 11:21:19;;;;;;;10.88;4.63;;;;;;;;;;5005148;28;20049;-72
2022/03/20 11:23:45;;;;;;;12.27;5.40;;;;;;;;;;5011063;28;20022;-74
2022/03/20 11:26:13;;;;;;;10.45;4.75;;;;;;;;;;5013761;28;20570;-74
2022/03/20 11:28:45;;;;;;;12.15;5.30;;;;;;;;;;5010978;28;20065;-74
2022/03/20 11:31:12;;;;;;;10.60;5.18;;;;;;;;;;5016114;28;20058;-71
2022/03/20 11:33:39;;;;;;;9.73;4.80;;;;;;;;;;5018810;28;20021;-75
2022/03/20 11:36:05;;;;;;;7.20;4.45;;;;;;;;;;5005180;28;20034;-75
2022/03/20 11:38:35;;;;;;;10.43;5.05;;;;;;;;;;5011626;28;20053;-73
2022/03/20 11:41:07;;;;;;;10.48;5.00;;;;;;;;;;5011489;28;20034;-73
2022/03/20 11:43:35;;;;;;;9.25;5.28;;;;;;;;;;5008449;28;20022;-73
2022/03/20 11:46:27;;;;;;;13.63;5.38;;;;;;;;;;4992959;28;20412;-74
2022/03/20 11:49:12;;;;;;;13.25;5.10;;;;;;;;;;5010009;28;20107;-73
2022/03/20 11:51:56;;;;;;;12.18;6.05;;;;;;;;;;5008539;28;20030;-74
2022/03/20 11:54:29;;;;;;;8.43;5.22;;;;;;;;;;5008661;28;20446;-73
2022/03/20 11:56:56;;;;;;;12.80;5.18;;;;;;;;;;5000552;28;20033;-74
2022/03/20 11:59:40;;;;;;;13.43;5.93;;;;;;;;;;5010234;28;20026;-74
2022/03/20 12:02:07;;;;;;;11.83;5.00;;;;;;;;;;5009804;28;20689;-74
2022/03/20 12:04:40;;;;;;;11.57;5.35;;;;;;;;;;5006620;28;20297;-76
2022/03/20 12:07:15;;;;;;;10.73;5.57;;;;;;;;;;5004724;28;20088;-74
2022/03/20 12:09:50;;;;;;;9.07;5.20;;;;;;;;;;5011474;28;20029;-75
2022/03/20 12:12:31;;;;;;;13.27;5.40;;;;;;;;;;5011195;28;20042;-74
2022/03/20 12:15:03;;;;;;;11.07;5.28;;;;;;;;;;5012574;28;20100;-74
2022/03/20 12:17:49;;;;;;;10.18;5.97;;;;;;;;;;5005150;28;20113;-75
2022/03/20 12:20:35;;;;;;;12.20;5.80;;;;;;;;;;5014553;28;20573;-74
2022/03/20 12:23:19;;;;;;;10.85;5.43;;;;;;;;;;5013224;28;20034;-75
2022/03/20 12:25:45;;;;;;;12.87;6.63;;;;;;;;;;5001790;28;20084;-75
2022/03/20 12:28:30;;;;;;;10.00;5.97;;;;;;;;;;5005746;28;20174;-75
2022/03/20 12:30:56;;;;;;;12.57;5.63;;;;;;;;;;5006048;28;20629;-76
2022/03/20 12:33:23;;;;;;;10.88;5.32;;;;;;;;;;5003481;28;20370;-74
2022/03/20 12:35:50;;;;;;;10.18;5.40;;;;;;;;;;4984575;28;20033;-75
2022/03/20 12:38:34;;;;;;;11.75;5.53;;;;;;;;;;5000280;28;20021;-73
2022/03/20 12:41:06;;;;;;;10.38;6.05;;;;;;;;;;5003900;28;20061;-74
2022/03/20 12:43:32;;;;;;;14.70;5.20;;;;;;;;;;5003168;28;20538;-75
2022/03/20 12:46:00;;;;;;;13.75;6.13;;;;;;;;;;5003504;28;20033;-76
2022/03/20 12:48:31;;;;;;;10.93;6.10;;;;;;;;;;5002680;28;20395;-79
2022/03/20 12:51:04;;;;;;;12.00;5.93;;;;;;;;;;5003010;28;20542;-76
2022/03/20 12:53:40;;;;;;;10.05;6.00;;;;;;;;;;4985798;28;20030;-77
2022/03/20 12:56:09;;;;;;;11.52;5.60;;;;;;;;;;5004398;28;20084;-76
2022/03/20 12:58:36;;;;;;;12.55;6.15;;;;;;;;;;5003934;28;20049;-77
2022/03/20 13:01:10;;;;;;;10.73;5.97;;;;;;;;;;4985926;28;20060;-74
2022/03/20 13:03:38;;;;;;;13.32;6.07;;;;;;;;;;5001994;28;20132;-76
2022/03/20 13:06:04;;;;;;;8.73;5.70;;;;;;;;;;4986689;28;20040;-76
2022/03/20 13:08:36;;;;;;;11.02;6.35;;;;;;;;;;5002848;28;20026;-75
2022/03/20 13:11:05;;;;;;;10.32;6.43;;;;;;;;;;5005201;28;20679;-76
2022/03/20 13:13:36;;;;;;;10.85;6.63;;;;;;;;;;5007686;28;20029;-77
2022/03/20 13:16:03;;;;;;;12.02;7.00;;;;;;;;;;5008122;28;20030;-75
2022/03/20 13:18:31;;;;;;;15.27;7.03;;;;;;;;;;5006667;28;20033;-78
2022/03/20 13:20:57;;;;;;;9.95;6.15;;;;;;;;;;5006307;28;20053;-76
2022/03/20 13:23:25;;;;;;;13.57;6.88;;;;;;;;;;5006794;28;20026;-74
2022/03/20 13:25:53;;;;;;;11.68;6.88;;;;;;;;;;5009134;28;20038;-75
2022/03/20 13:28:29;;;;;;;11.73;6.60;;;;;;;;;;5008731;28;20040;-78
2022/03/20 13:30:57;;;;;;;10.18;6.18;;;;;;;;;;4988304;28;20042;-76
2022/03/20 13:33:33;;;;;;;13.43;6.50;;;;;;;;;;5008243;28;20114;-76
2022/03/20 13:36:00;;;;;;;10.52;6.80;;;;;;;;;;5011752;28;20034;-79
2022/03/20 13:38:43;;;;;;;11.25;6.43;;;;;;;;;;4991195;28;20646;-77
2022/03/20 13:41:13;;;;;;;12.10;6.25;;;;;;;;;;5009192;28;20076;-75
2022/03/20 13:43:40;;;;;;;12.40;7.25;;;;;;;;;;5010024;28;20388;-76
2022/03/20 13:46:12;;;;;;;10.98;7.30;;;;;;;;;;5012221;28;20037;-78
2022/03/20 13:48:38;;;;;;;14.82;6.63;;;;;;;;;;5006130;28;20512;-77
2022/03/20 13:51:05;;;;;;;11.65;4.93;;;;;;;;;;5004620;28;20850;-80
2022/03/20 13:53:32;;;;;;;11.40;5.20;;;;;;;;;;5007721;28;20459;-79
2022/03/20 13:55:58;;;;;;;11.18;5.32;;;;;;;;;;5007123;28;20420;-78
2022/03/20 13:58:24;;;;;;;10.75;5.68;;;;;;;;;;5008258;28;20037;-80
2022/03/20 14:00:59;;;;;;;12.05;4.82;;;;;;;;;;5008681;28;20033;-79
2022/03/20 14:03:30;;;;;;;12.02;4.97;;;;;;;;;;4992949;28;20033;-76
2022/03/20 14:05:56;;;;;;;15.70;5.38;;;;;;;;;;5008803;28;20030;-79
2022/03/20 14:08:23;;;;;;;9.00;4.65;;;;;;;;;;5010418;28;20030;-80
2022/03/20 14:10:50;;;;;;;10.05;5.68;;;;;;;;;;5008018;28;20034;-78
2022/03/20 14:13:21;;;;;;;14.13;5.80;;;;;;;;;;5007969;28;20073;-79
2022/03/20 14:15:53;;;;;;;10.02;5.30;;;;;;;;;;4991416;28;20040;-76
2022/03/20 14:18:19;;;;;;;10.45;6.30;;;;;;;;;;5006330;28;20030;-79
2022/03/20 14:20:45;;;;;;;13.00;5.68;;;;;;;;;;5008166;28;20029;-78
2022/03/20 14:23:12;;;;;;;11.30;5.65;;;;;;;;;;5002515;28;20040;-77
2022/03/20 14:25:46;;;;;;;11.25;5.22;;;;;;;;;;4990555;28;20062;-79
2022/03/20 14:28:15;;;;;;;12.55;5.32;;;;;;;;;;5007034;28;20484;-78
2022/03/20 14:41:51;;;;;;;;;;;;;;;;;;5007425;28;20049;-80
2022/03/20 14:44:18;;;;;;;13.48;6.63;;;;;;;;;;5006842;28;20378;-79
2022/03/20 14:46:47;;;;;;;11.27;6.35;;;;;;;;;;4991692;28;20026;-77
2022/03/20 14:49:14;;;;;;;15.23;8.10;;;;;;;;;;5006229;28;20029;-77
2022/03/20 14:51:42;;;;;;;20.23;12.30;;;;;;;;;;5008480;28;20022;-76
2022/03/20 14:54:09;;;;;;;10.60;6.97;;;;;;;;;;4996331;28;20052;-76
2022/03/20 14:56:37;;;;;;;13.25;7.15;;;;;;;;;;5017797;28;20094;-74
2022/03/20 14:59:04;;;;;;;12.55;6.93;;;;;;;;;;5018983;28;20100;-75
2022/03/20 15:01:30;;;;;;;12.27;7.13;;;;;;;;;;5014030;28;20026;-78
2022/03/20 15:03:58;;;;;;;10.50;6.30;;;;;;;;;;5014241;28;20079;-78
2022/03/20 15:06:25;;;;;;;8.85;5.88;;;;;;;;;;5002983;28;20041;-77
2022/03/20 15:11:37;;;;;;;12.05;5.80;;;;;;;;;;5016859;28;20291;-78
2022/03/20 15:14:05;;;;;;;11.68;6.55;;;;;;;;;;5020216;28;20030;-78
2022/03/20 15:16:32;;;;;;;9.38;5.50;;;;;;;;;;5012499;28;20535;-78
2022/03/20 15:18:59;;;;;;;14.65;6.80;;;;;;;;;;4996449;28;20033;-75
2022/03/20 15:21:26;;;;;;;17.10;7.25;;;;;;;;;;5003804;28;20054;-76
2022/03/20 15:23:53;;;;;;;14.77;6.82;;;;;;;;;;5013705;28;20033;-76
2022/03/20 15:26:20;;;;;;;10.10;5.80;;;;;;;;;;4996288;28;20705;-78
2022/03/20 15:28:46;;;;;;;10.77;6.10;;;;;;;;;;5012788;28;20168;-75
2022/03/20 15:31:13;;;;;;;12.07;6.68;;;;;;;;;;5010808;28;20233;-76
2022/03/20 15:33:40;;;;;;;14.65;7.07;;;;;;;;;;5005514;28;20132;-76